createdAt,value
2018-09-30T00:01:22.067Z,66.70
2018-09-30T00:03:50.554Z,70.23
2018-09-30T00:06:19.071Z,62.17
2018-09-30T00:08:47.562Z,45.53
2018-09-30T00:11:16.094Z,44.60
2018-09-30T00:13:44.728Z,41.17
2018-09-30T00:16:13.283Z,38.00
2018-09-30T00:18:48.577Z,28.43
2018-09-30T00:21:17.070Z,31.57
2018-09-30T00:23:50.777Z,34.37
2018-09-30T00:26:24.728Z,28.13
2018-09-30T00:28:53.221Z,27.50
2018-09-30T00:31:21.746Z,14.83
2018-09-30T00:33:55.601Z,13.30
2018-09-30T00:36:24.262Z,17.50
2018-09-30T00:38:53.058Z,10.93
2018-09-30T00:41:21.570Z,9.90
2018-09-30T00:43:50.086Z,11.83
2018-09-30T00:46:19.145Z,10.73
2018-09-30T00:48:47.660Z,6.70
2018-09-30T00:51:16.175Z,9.83
2018-09-30T00:53:44.656Z,10.50
2018-09-30T00:56:13.883Z,9.03
2018-09-30T00:58:43.378Z,13.80
2018-09-30T01:01:12.405Z,8.60
2018-09-30T01:03:40.886Z,10.90
2018-09-30T01:06:09.411Z,11.83
2018-09-30T01:08:38.218Z,12.33
2018-09-30T01:11:07.378Z,14.57
2018-09-30T01:13:35.861Z,11.23
2018-09-30T01:16:04.386Z,7.13
2018-09-30T01:18:32.917Z,13.70
2018-09-30T01:21:01.469Z,9.40
2018-09-30T01:23:29.959Z,8.77
2018-09-30T01:25:58.457Z,9.60
2018-09-30T01:28:27.006Z,6.20
2018-09-30T01:30:55.485Z,7.57
2018-09-30T01:33:24.029Z,7.57
2018-09-30T01:35:52.588Z,8.33
2018-09-30T01:38:21.082Z,4.47
2018-09-30T01:40:49.629Z,10.20
2018-09-30T01:43:18.134Z,7.20
2018-09-30T01:45:46.617Z,9.60
2018-09-30T01:48:15.182Z,12.40
2018-09-30T01:50:43.660Z,9.00
2018-09-30T01:53:12.279Z,6.80
2018-09-30T01:55:40.824Z,11.63
2018-09-30T01:58:09.342Z,16.33
2018-09-30T02:00:37.863Z,15.73
2018-09-30T02:03:06.565Z,12.33
2018-09-30T02:05:35.105Z,14.20
2018-09-30T02:08:03.661Z,18.73
2018-09-30T02:10:32.153Z,13.60
2018-09-30T02:13:00.698Z,14.77
2018-09-30T02:15:30.076Z,8.17
2018-09-30T02:17:58.612Z,7.60
2018-09-30T02:20:27.093Z,15.13
2018-09-30T02:22:55.672Z,10.10
2018-09-30T02:25:24.186Z,13.63
2018-09-30T02:27:52.810Z,14.17
2018-09-30T02:30:21.323Z,15.27
2018-09-30T02:32:49.812Z,17.90
2018-09-30T02:35:18.371Z,15.97
2018-09-30T02:37:46.917Z,14.10
2018-09-30T02:40:15.425Z,25.97
2018-09-30T02:42:43.962Z,19.10
2018-09-30T02:45:12.491Z,12.23
2018-09-30T02:47:40.998Z,12.43
2018-09-30T02:50:09.881Z,13.40
2018-09-30T02:52:38.379Z,15.33
2018-09-30T02:55:06.878Z,12.33
2018-09-30T02:57:35.406Z,16.40
2018-09-30T03:00:03.898Z,13.83
2018-09-30T03:02:32.429Z,10.57
2018-09-30T03:05:00.995Z,12.13
2018-09-30T03:07:34.793Z,18.10
2018-09-30T03:10:03.391Z,8.97
2018-09-30T03:12:31.890Z,17.33
2018-09-30T03:15:00.492Z,10.20
2018-09-30T03:17:28.994Z,10.30
2018-09-30T03:19:57.505Z,15.93
2018-09-30T07:38:11.543Z,17.60
2018-09-30T07:40:40.043Z,20.10
2018-09-30T07:43:08.513Z,18.90
2018-09-30T07:45:37.023Z,20.47
2018-09-30T07:48:05.619Z,25.43
2018-09-30T07:50:34.775Z,22.67
2018-09-30T07:53:03.239Z,21.17
2018-09-30T07:55:31.930Z,20.37
2018-09-30T07:58:00.527Z,22.00
2018-09-30T08:00:29.097Z,18.90
2018-09-30T08:02:57.678Z,16.97
2018-09-30T08:05:26.395Z,21.43
2018-09-30T08:07:54.859Z,21.17
2018-09-30T08:10:23.605Z,19.00
2018-09-30T08:12:52.154Z,17.30
2018-09-30T08:15:20.689Z,11.93
2018-09-30T08:17:49.411Z,12.03
2018-09-30T08:20:24.197Z,20.00
2018-09-30T08:22:52.737Z,17.23
2018-09-30T08:25:21.277Z,14.27
2018-09-30T08:27:49.805Z,14.93
2018-09-30T08:30:18.357Z,13.00
2018-09-30T08:32:46.930Z,13.73
2018-09-30T08:35:15.491Z,12.47
2018-09-30T08:37:49.374Z,12.70
2018-09-30T08:40:23.278Z,11.30
2018-09-30T08:42:51.826Z,10.40
2018-09-30T08:45:20.354Z,8.63
2018-09-30T08:47:48.936Z,16.27
2018-09-30T08:50:17.378Z,20.60
2018-09-30T08:52:45.965Z,14.80
2018-09-30T08:55:14.442Z,11.93
2018-09-30T08:57:43.027Z,14.07
2018-09-30T09:00:11.554Z,20.23
2018-09-30T09:02:40.038Z,12.70
2018-09-30T09:05:08.785Z,15.43
2018-09-30T09:07:37.304Z,15.00
2018-09-30T09:10:05.808Z,12.67
2018-09-30T09:12:34.410Z,8.60
2018-09-30T09:15:09.635Z,16.33
2018-09-30T09:17:38.150Z,13.07
2018-09-30T09:20:06.749Z,11.80
2018-09-30T09:22:35.619Z,18.87
2018-09-30T09:25:04.238Z,16.27
2018-09-30T09:27:32.803Z,28.07
2018-09-30T09:30:01.277Z,17.83
2018-09-30T09:32:33.427Z,12.13
2018-09-30T09:35:01.966Z,10.77
2018-09-30T09:37:30.449Z,11.30
2018-09-30T09:39:59.066Z,10.27
2018-09-30T09:42:27.545Z,21.30
2018-09-30T09:44:56.183Z,13.17
2018-09-30T09:47:24.670Z,13.13
2018-09-30T09:49:53.245Z,14.07
2018-09-30T09:52:21.804Z,15.93
2018-09-30T09:54:50.297Z,12.87
2018-09-30T09:57:19.113Z,15.87
2018-09-30T09:59:47.906Z,15.13
2018-09-30T10:02:16.952Z,10.60
2018-09-30T10:04:45.448Z,8.50
2018-09-30T10:07:13.939Z,20.57
2018-09-30T10:09:42.503Z,16.90
2018-09-30T10:12:11.139Z,10.87
2018-09-30T10:14:39.611Z,18.10
2018-09-30T10:17:08.423Z,28.57
2018-09-30T10:19:37.466Z,13.20
2018-09-30T10:22:05.946Z,18.73
2018-09-30T10:24:34.563Z,12.90
2018-09-30T10:27:03.077Z,16.33
2018-09-30T10:29:31.593Z,16.43
2018-09-30T10:32:00.295Z,13.00
2018-09-30T10:34:28.785Z,16.87
2018-09-30T10:37:04.285Z,13.47
2018-09-30T10:39:32.763Z,15.67
2018-09-30T10:42:01.259Z,15.60
2018-09-30T10:44:29.801Z,17.20
2018-09-30T10:46:58.287Z,12.07
2018-09-30T10:49:26.821Z,16.20
2018-09-30T10:51:55.285Z,15.00
2018-09-30T10:54:23.821Z,20.80
2018-09-30T10:56:52.377Z,22.77
2018-09-30T10:59:20.833Z,23.43
2018-09-30T11:01:49.329Z,13.57
2018-09-30T11:04:18.077Z,14.80
2018-09-30T11:06:47.320Z,16.30
2018-09-30T11:09:15.795Z,14.07
2018-09-30T11:11:44.350Z,17.30
2018-09-30T11:14:12.893Z,14.40
2018-09-30T11:16:41.445Z,14.77
2018-09-30T11:19:09.980Z,15.57
2018-09-30T11:21:38.473Z,12.90
2018-09-30T11:24:07.194Z,22.07
2018-09-30T11:26:36.389Z,13.93
2018-09-30T11:29:04.905Z,13.10
2018-09-30T11:31:33.466Z,13.60
2018-09-30T11:34:01.965Z,17.10
2018-09-30T11:36:30.458Z,13.40
2018-09-30T11:38:58.966Z,12.83
2018-09-30T11:41:27.513Z,13.40
2018-09-30T11:43:56.965Z,14.30
2018-09-30T11:46:25.473Z,14.80
2018-09-30T11:48:53.953Z,16.97
2018-09-30T11:51:22.441Z,15.87
2018-09-30T11:53:50.947Z,21.27
2018-09-30T11:56:19.409Z,13.67
2018-09-30T11:58:47.873Z,15.50
2018-09-30T12:01:16.412Z,9.47
2018-09-30T12:03:44.889Z,10.30
2018-09-30T12:06:13.397Z,9.17
2018-09-30T12:08:41.867Z,10.33
2018-09-30T12:11:10.403Z,12.23
2018-09-30T12:13:38.929Z,11.03
2018-09-30T12:16:07.767Z,13.10
2018-09-30T12:18:36.256Z,13.17
2018-09-30T12:22:08.094Z,12.03
2018-09-30T12:24:36.661Z,14.07
2018-09-30T12:27:05.209Z,12.80
2018-09-30T12:29:34.094Z,10.23
2018-09-30T12:32:02.594Z,7.27
2018-09-30T12:34:31.033Z,9.83
2018-09-30T12:36:59.550Z,13.60
2018-09-30T12:39:28.268Z,8.83
2018-09-30T12:41:56.706Z,10.20
2018-09-30T12:44:25.305Z,9.13
2018-09-30T12:46:53.829Z,9.63
2018-09-30T12:49:22.393Z,11.20
2018-09-30T12:51:50.884Z,11.63
2018-09-30T12:54:19.385Z,10.00
2018-09-30T12:56:47.927Z,11.33
2018-09-30T12:59:16.954Z,12.17
2018-09-30T13:01:45.432Z,6.40
2018-09-30T13:04:14.115Z,8.53
2018-09-30T13:06:42.640Z,7.97
2018-09-30T13:09:11.602Z,12.00
2018-09-30T13:11:40.177Z,22.70
2018-09-30T13:14:08.878Z,10.63
2018-09-30T13:16:37.422Z,6.90
2018-09-30T13:19:06.042Z,5.90
2018-09-30T13:21:34.559Z,9.37
2018-09-30T13:24:03.073Z,12.30
2018-09-30T13:26:31.569Z,8.33
2018-09-30T13:29:00.142Z,12.60
2018-09-30T13:31:28.646Z,6.10
2018-09-30T13:33:57.238Z,7.10
2018-09-30T13:36:25.806Z,9.10
2018-09-30T13:38:55.018Z,21.97
2018-09-30T13:41:23.590Z,10.30
2018-09-30T13:43:52.109Z,9.27
2018-09-30T13:46:20.665Z,13.47
2018-09-30T13:48:49.246Z,11.57
2018-09-30T13:51:17.925Z,9.93
2018-09-30T13:53:46.489Z,6.63
2018-09-30T13:56:15.025Z,6.97
2018-09-30T13:58:43.659Z,15.00
2018-09-30T14:01:12.221Z,9.90
2018-09-30T14:03:40.737Z,9.57
2018-09-30T14:06:09.320Z,9.87
2018-09-30T14:08:37.818Z,6.37
2018-09-30T14:11:06.474Z,9.27
2018-09-30T14:13:34.989Z,11.73
2018-09-30T14:16:03.562Z,9.30
2018-09-30T14:18:32.097Z,11.07
2018-09-30T14:21:00.582Z,6.17
2018-09-30T14:23:29.134Z,6.90
2018-09-30T14:25:57.666Z,6.40
2018-09-30T14:28:26.158Z,21.97
2018-09-30T14:30:54.942Z,6.80
2018-09-30T14:33:23.446Z,7.90
2018-09-30T14:35:51.902Z,12.70
2018-09-30T14:38:20.557Z,6.73
2018-09-30T14:40:49.058Z,10.80
2018-09-30T14:43:17.555Z,7.40
2018-09-30T14:45:46.077Z,13.00
2018-09-30T14:48:14.656Z,11.93
2018-09-30T14:50:43.148Z,9.13
2018-09-30T14:53:11.704Z,10.07
2018-09-30T14:55:40.187Z,12.67
2018-09-30T14:58:09.084Z,11.67
2018-09-30T15:00:37.830Z,13.57
2018-09-30T15:03:06.301Z,10.70
2018-09-30T15:05:34.830Z,8.97
2018-09-30T15:08:03.370Z,12.70
2018-09-30T15:10:31.830Z,8.80
2018-09-30T15:13:00.382Z,5.70
2018-09-30T15:15:28.945Z,15.43
2018-09-30T15:17:57.489Z,9.00
2018-09-30T15:20:26.005Z,9.30
2018-09-30T15:22:54.793Z,8.70
2018-09-30T15:25:23.295Z,11.57
2018-09-30T15:27:52.567Z,9.77
2018-09-30T15:30:21.129Z,8.27
2018-09-30T15:32:49.682Z,11.07
2018-09-30T15:35:18.246Z,12.33
2018-09-30T15:37:46.798Z,10.30
2018-09-30T15:40:15.345Z,13.60
2018-09-30T15:42:43.927Z,12.23
2018-09-30T15:45:12.634Z,6.13
2018-09-30T15:47:41.131Z,10.23
2018-09-30T15:50:09.658Z,11.43
2018-09-30T15:52:38.153Z,11.23
2018-09-30T15:55:06.886Z,11.50
2018-09-30T15:57:35.370Z,10.10
2018-09-30T16:00:04.045Z,10.33
2018-09-30T16:02:32.567Z,11.60
2018-09-30T16:05:01.710Z,11.73
2018-09-30T16:07:30.701Z,16.43
2018-09-30T16:09:59.177Z,12.53
2018-09-30T16:12:27.951Z,16.57
2018-09-30T16:14:56.478Z,12.43
2018-09-30T16:17:24.983Z,8.50
2018-09-30T16:19:53.576Z,13.50
2018-09-30T16:22:22.053Z,13.30
2018-09-30T16:24:50.577Z,12.83
2018-09-30T16:27:19.037Z,12.30
2018-09-30T16:29:47.586Z,11.57
2018-09-30T16:32:16.089Z,10.50
2018-09-30T16:34:44.575Z,11.90
2018-09-30T16:37:13.340Z,12.13
2018-09-30T16:39:41.847Z,8.73
2018-09-30T16:42:10.419Z,14.10
2018-09-30T16:44:39.045Z,9.47
2018-09-30T16:47:07.504Z,9.03
2018-09-30T16:49:36.039Z,8.03
2018-09-30T16:52:04.573Z,8.30
2018-09-30T16:54:33.050Z,14.43
2018-09-30T16:57:01.566Z,8.57
2018-09-30T16:59:30.037Z,8.70
2018-09-30T17:01:58.546Z,7.83
2018-09-30T17:04:27.049Z,9.47
2018-09-30T17:06:55.597Z,15.83
2018-09-30T17:09:24.137Z,12.57
2018-09-30T17:11:52.709Z,16.00
2018-09-30T17:14:21.228Z,13.77
2018-09-30T17:16:49.736Z,11.27
2018-09-30T17:19:18.222Z,14.40
2018-09-30T17:21:46.730Z,14.63
2018-09-30T17:24:15.382Z,11.73
2018-09-30T17:26:44.788Z,17.53
2018-09-30T17:29:14.464Z,16.67
2018-09-30T17:31:43.157Z,12.13
2018-09-30T17:34:11.697Z,10.93
2018-09-30T17:36:40.278Z,10.60
2018-09-30T17:39:10.031Z,9.17
2018-09-30T17:41:38.535Z,10.80
2018-09-30T17:44:07.013Z,7.60
2018-09-30T17:46:35.526Z,10.80
2018-09-30T17:49:04.174Z,12.03
2018-09-30T17:51:32.737Z,26.43
2018-09-30T17:54:01.250Z,15.53
2018-09-30T17:56:29.838Z,17.10
2018-09-30T17:58:58.365Z,17.50
2018-09-30T18:01:26.869Z,14.00
2018-09-30T18:03:55.434Z,17.63
2018-09-30T18:06:24.027Z,15.00
2018-09-30T18:08:52.578Z,18.67
2018-09-30T18:11:21.082Z,11.27
2018-09-30T18:13:50.906Z,21.50
2018-09-30T18:16:19.841Z,30.27
2018-09-30T18:18:48.447Z,15.27
2018-09-30T18:21:17.469Z,16.80
2018-09-30T18:23:47.344Z,20.53
2018-09-30T18:26:16.147Z,14.40
2018-09-30T18:28:44.730Z,17.73
2018-09-30T18:31:13.518Z,14.07
2018-09-30T18:33:42.513Z,13.57
2018-09-30T18:36:14.149Z,13.33
2018-09-30T18:38:42.794Z,12.00
2018-09-30T18:41:11.466Z,16.57
2018-09-30T18:43:39.989Z,11.67
2018-09-30T18:46:08.766Z,18.70
2018-09-30T18:48:37.619Z,15.47
2018-09-30T18:51:06.468Z,14.50
2018-09-30T18:53:35.238Z,18.63
2018-09-30T18:56:04.103Z,16.23
2018-09-30T18:58:32.528Z,17.80
2018-09-30T19:01:01.232Z,18.70
2018-09-30T19:03:29.934Z,20.80
2018-09-30T19:05:58.620Z,25.93
2018-09-30T19:08:27.240Z,21.47
2018-09-30T19:10:56.432Z,18.80
2018-09-30T19:13:24.984Z,20.97
2018-09-30T19:15:54.063Z,18.03
2018-09-30T19:18:22.806Z,15.87
2018-09-30T19:20:51.776Z,20.30
2018-09-30T19:23:20.451Z,37.03
2018-09-30T19:25:49.241Z,17.20
2018-09-30T19:28:17.969Z,22.33
2018-09-30T19:30:46.550Z,20.03
2018-09-30T19:33:15.202Z,14.23
2018-09-30T19:35:43.943Z,17.00
2018-09-30T19:38:12.782Z,21.73
2018-09-30T19:40:41.701Z,16.20
2018-09-30T19:43:10.318Z,19.73
2018-09-30T19:45:38.930Z,15.30
2018-09-30T19:48:07.887Z,21.93
2018-09-30T19:50:36.453Z,26.47
2018-09-30T19:53:05.426Z,25.40
2018-09-30T19:55:34.430Z,22.80
2018-09-30T19:58:03.100Z,22.03
2018-09-30T20:00:31.946Z,25.57
2018-09-30T20:03:00.746Z,17.83
2018-09-30T20:05:29.466Z,27.20
2018-09-30T20:07:58.690Z,21.10
2018-09-30T20:10:27.256Z,25.33
2018-09-30T20:12:56.040Z,20.30
2018-09-30T20:15:24.614Z,21.57
2018-09-30T20:17:53.482Z,23.33
2018-09-30T20:20:22.061Z,21.23
2018-09-30T20:22:51.229Z,20.20
2018-09-30T20:25:19.885Z,24.40
2018-09-30T20:27:48.411Z,23.60
2018-09-30T20:30:17.190Z,21.10
2018-09-30T20:32:45.653Z,21.13
2018-09-30T20:36:17.372Z,22.33
2018-09-30T20:38:45.887Z,23.90
2018-09-30T20:41:14.361Z,25.53
2018-09-30T20:43:42.875Z,20.23
2018-09-30T20:46:18.277Z,20.80
2018-09-30T20:48:47.117Z,19.87
2018-09-30T20:51:15.641Z,28.70
2018-09-30T20:53:44.091Z,17.13
2018-09-30T20:56:12.702Z,22.37
2018-09-30T20:58:41.250Z,20.60
2018-09-30T21:01:10.126Z,28.00
2018-09-30T21:03:38.675Z,20.70
2018-09-30T21:06:16.661Z,20.83
2018-09-30T21:08:46.063Z,30.83
2018-09-30T21:11:14.582Z,21.00
2018-09-30T21:13:43.413Z,20.03
2018-09-30T21:16:12.229Z,19.13
2018-09-30T21:18:40.858Z,17.67
2018-09-30T21:21:09.382Z,21.87
2018-09-30T21:23:37.857Z,15.53
2018-09-30T21:26:06.564Z,14.10
2018-09-30T21:28:36.011Z,25.20
2018-09-30T21:31:05.164Z,15.97
2018-09-30T21:33:33.680Z,22.03
2018-09-30T21:36:02.194Z,16.73
2018-09-30T21:38:30.729Z,18.80
2018-09-30T21:40:59.233Z,20.93
2018-09-30T21:43:27.865Z,20.13
2018-09-30T21:45:56.340Z,16.73
2018-09-30T21:48:24.865Z,21.40
2018-09-30T21:50:53.366Z,19.00
2018-09-30T21:53:21.849Z,22.50
2018-09-30T21:55:50.363Z,16.73
2018-09-30T21:58:18.837Z,25.27
2018-09-30T22:00:52.726Z,17.47
2018-09-30T22:03:21.270Z,12.90
2018-09-30T22:05:49.794Z,24.00
2018-09-30T22:08:18.413Z,21.83
2018-09-30T22:10:46.961Z,14.70
2018-09-30T22:13:15.451Z,13.83
2018-09-30T22:15:44.227Z,17.77
2018-09-30T22:18:12.750Z,17.10
2018-09-30T22:20:41.250Z,15.50
2018-09-30T22:23:09.805Z,20.30
2018-09-30T22:25:38.353Z,19.43
2018-09-30T22:28:07.108Z,15.10
2018-09-30T22:30:35.684Z,18.07
2018-09-30T22:33:04.661Z,15.03
2018-09-30T22:35:33.222Z,21.33
2018-09-30T22:38:01.707Z,17.10
2018-09-30T22:40:30.229Z,18.20
2018-09-30T22:42:58.839Z,17.77
2018-09-30T22:45:27.382Z,18.20
2018-09-30T22:47:55.877Z,11.53
2018-09-30T22:50:24.448Z,23.73
2018-09-30T22:52:52.926Z,10.40
2018-09-30T22:55:21.455Z,14.27
2018-09-30T22:57:50.374Z,21.20
2018-09-30T23:00:18.858Z,18.53
2018-09-30T23:02:47.363Z,29.03
2018-09-30T23:05:15.865Z,17.13
2018-09-30T23:07:44.345Z,8.37
2018-09-30T23:10:13.657Z,19.23
2018-09-30T23:12:42.418Z,13.13
2018-09-30T23:15:11.052Z,9.53
2018-09-30T23:17:39.956Z,16.63
2018-09-30T23:20:14.058Z,20.03
2018-09-30T23:22:42.573Z,15.73
2018-09-30T23:25:11.246Z,16.10
2018-09-30T23:27:39.757Z,12.37
2018-09-30T23:30:08.390Z,9.10
2018-09-30T23:32:37.189Z,16.80
2018-09-30T23:35:05.993Z,14.30
2018-09-30T23:37:34.468Z,12.90
2018-09-30T23:40:03.348Z,13.77
2018-09-30T23:43:35.120Z,10.80
2018-09-30T23:46:03.677Z,12.53
2018-09-30T23:48:32.169Z,17.73
2018-09-30T23:51:00.666Z,20.23
2018-09-30T23:53:29.179Z,12.40
2018-09-30T23:55:57.737Z,11.30
2018-09-30T23:58:26.227Z,14.53
